sensor_id;sensor_type;location;lat;lon;timestamp;temperature;humidity
78461;SHT31;67755;51.986;5.696;2023-04-07T00:02:14;12.8;67.6
78461;SHT31;67755;51.986;5.696;2023-04-07T00:04:43;12.8;67.8
78461;SHT31;67755;51.986;5.696;2023-04-07T00:07:13;12.8;67.8
78461;SHT31;67755;51.986;5.696;2023-04-07T00:09:42;12.8;67.7
78461;SHT31;67755;51.986;5.696;2023-04-07T00:12:12;12.8;67.8
78461;SHT31;67755;51.986;5.696;2023-04-07T00:14:42;12.8;67.9
78461;SHT31;67755;51.986;5.696;2023-04-07T00:17:12;12.8;67.8
78461;SHT31;67755;51.986;5.696;2023-04-07T00:19:42;12.8;67.8
78461;SHT31;67755;51.986;5.696;2023-04-07T00:22:12;12.8;67.8
78461;SHT31;67755;51.986;5.696;2023-04-07T00:24:43;12.8;67.8
78461;SHT31;67755;51.986;5.696;2023-04-07T00:27:13;12.8;67.8
78461;SHT31;67755;51.986;5.696;2023-04-07T00:29:43;12.8;67.7
78461;SHT31;67755;51.986;5.696;2023-04-07T00:32:13;12.7;67.6
78461;SHT31;67755;51.986;5.696;2023-04-07T00:34:47;12.7;67.7
78461;SHT31;67755;51.986;5.696;2023-04-07T00:37:16;12.7;67.4
78461;SHT31;67755;51.986;5.696;2023-04-07T00:39:46;12.7;67.7
78461;SHT31;67755;51.986;5.696;2023-04-07T00:42:19;12.7;67.6
78461;SHT31;67755;51.986;5.696;2023-04-07T00:44:50;12.7;67.5
78461;SHT31;67755;51.986;5.696;2023-04-07T00:47:20;12.7;67.4
78461;SHT31;67755;51.986;5.696;2023-04-07T00:49:50;12.7;67.3
78461;SHT31;67755;51.986;5.696;2023-04-07T00:52:19;12.7;67.2
78461;SHT31;67755;51.986;5.696;2023-04-07T00:54:55;12.7;66.9
78461;SHT31;67755;51.986;5.696;2023-04-07T00:57:26;12.7;66.8
78461;SHT31;67755;51.986;5.696;2023-04-07T00:59:56;12.7;66.8
78461;SHT31;67755;51.986;5.696;2023-04-07T01:02:32;12.7;66.7
78461;SHT31;67755;51.986;5.696;2023-04-07T01:05:14;12.7;66.8
78461;SHT31;67755;51.986;5.696;2023-04-07T01:07:54;12.7;66.8
78461;SHT31;67755;51.986;5.696;2023-04-07T01:10:36;12.7;67.0
78461;SHT31;67755;51.986;5.696;2023-04-07T01:13:20;12.7;66.9
78461;SHT31;67755;51.986;5.696;2023-04-07T01:15:54;12.7;66.8
78461;SHT31;67755;51.986;5.696;2023-04-07T01:18:30;12.7;66.7
78461;SHT31;67755;51.986;5.696;2023-04-07T01:21:05;12.7;66.6
78461;SHT31;67755;51.986;5.696;2023-04-07T01:23:51;12.7;66.5
78461;SHT31;67755;51.986;5.696;2023-04-07T01:26:25;12.7;66.6
78461;SHT31;67755;51.986;5.696;2023-04-07T01:29:23;12.7;66.5
78461;SHT31;67755;51.986;5.696;2023-04-07T01:31:54;12.7;66.5
78461;SHT31;67755;51.986;5.696;2023-04-07T01:34:26;12.7;66.3
78461;SHT31;67755;51.986;5.696;2023-04-07T01:36:59;12.7;66.3
78461;SHT31;67755;51.986;5.696;2023-04-07T01:39:31;12.7;66.0
78461;SHT31;67755;51.986;5.696;2023-04-07T01:42:03;12.7;66.0
78461;SHT31;67755;51.986;5.696;2023-04-07T01:44:37;12.7;66.0
78461;SHT31;67755;51.986;5.696;2023-04-07T01:47:08;12.6;66.0
78461;SHT31;67755;51.986;5.696;2023-04-07T01:49:39;12.6;65.8
78461;SHT31;67755;51.986;5.696;2023-04-07T01:52:10;12.6;65.8
78461;SHT31;67755;51.986;5.696;2023-04-07T01:54:40;12.6;65.7
78461;SHT31;67755;51.986;5.696;2023-04-07T01:57:10;12.6;65.7
78461;SHT31;67755;51.986;5.696;2023-04-07T01:59:40;12.6;65.7
78461;SHT31;67755;51.986;5.696;2023-04-07T02:02:10;12.6;65.8
78461;SHT31;67755;51.986;5.696;2023-04-07T02:04:46;12.6;65.8
78461;SHT31;67755;51.986;5.696;2023-04-07T02:07:21;12.6;65.9
78461;SHT31;67755;51.986;5.696;2023-04-07T02:09:56;12.6;65.9
78461;SHT31;67755;51.986;5.696;2023-04-07T02:12:29;12.6;65.9
78461;SHT31;67755;51.986;5.696;2023-04-07T02:15:01;12.6;65.7
78461;SHT31;67755;51.986;5.696;2023-04-07T02:17:34;12.6;65.8
78461;SHT31;67755;51.986;5.696;2023-04-07T02:20:11;12.6;65.6
78461;SHT31;67755;51.986;5.696;2023-04-07T02:22:41;12.6;65.8
78461;SHT31;67755;51.986;5.696;2023-04-07T02:25:24;12.6;65.9
78461;SHT31;67755;51.986;5.696;2023-04-07T02:27:56;12.6;66.0
78461;SHT31;67755;51.986;5.696;2023-04-07T02:30:26;12.5;65.9
78461;SHT31;67755;51.986;5.696;2023-04-07T02:32:56;12.5;65.9
78461;SHT31;67755;51.986;5.696;2023-04-07T02:35:26;12.5;65.9
78461;SHT31;67755;51.986;5.696;2023-04-07T02:37:56;12.5;65.9
78461;SHT31;67755;51.986;5.696;2023-04-07T02:40:25;12.5;66.0
78461;SHT31;67755;51.986;5.696;2023-04-07T02:42:55;12.5;65.9
78461;SHT31;67755;51.986;5.696;2023-04-07T02:45:24;12.5;66.1
78461;SHT31;67755;51.986;5.696;2023-04-07T02:47:54;12.5;66.1
78461;SHT31;67755;51.986;5.696;2023-04-07T02:50:24;12.5;66.1
78461;SHT31;67755;51.986;5.696;2023-04-07T02:52:55;12.5;66.2
78461;SHT31;67755;51.986;5.696;2023-04-07T02:55:25;12.5;66.1
78461;SHT31;67755;51.986;5.696;2023-04-07T02:57:54;12.5;66.0
78461;SHT31;67755;51.986;5.696;2023-04-07T03:00:24;12.5;66.1
78461;SHT31;67755;51.986;5.696;2023-04-07T03:02:54;12.5;66.2
78461;SHT31;67755;51.986;5.696;2023-04-07T03:05:24;12.5;66.2
78461;SHT31;67755;51.986;5.696;2023-04-07T03:07:53;12.5;66.2
78461;SHT31;67755;51.986;5.696;2023-04-07T03:10:23;12.5;66.3
78461;SHT31;67755;51.986;5.696;2023-04-07T03:12:52;12.5;66.2
78461;SHT31;67755;51.986;5.696;2023-04-07T03:15:22;12.5;66.3
78461;SHT31;67755;51.986;5.696;2023-04-07T03:17:52;12.5;66.4
78461;SHT31;67755;51.986;5.696;2023-04-07T03:20:21;12.5;66.4
78461;SHT31;67755;51.986;5.696;2023-04-07T03:22:51;12.5;66.2
78461;SHT31;67755;51.986;5.696;2023-04-07T03:25:20;12.5;66.3
78461;SHT31;67755;51.986;5.696;2023-04-07T03:27:52;12.5;66.3
78461;SHT31;67755;51.986;5.696;2023-04-07T03:30:21;12.5;66.3
78461;SHT31;67755;51.986;5.696;2023-04-07T03:32:51;12.6;66.1
78461;SHT31;67755;51.986;5.696;2023-04-07T03:35:20;12.5;66.1
78461;SHT31;67755;51.986;5.696;2023-04-07T03:37:50;12.5;66.3
78461;SHT31;67755;51.986;5.696;2023-04-07T03:40:20;12.5;66.2
78461;SHT31;67755;51.986;5.696;2023-04-07T03:42:51;12.5;66.3
78461;SHT31;67755;51.986;5.696;2023-04-07T03:45:21;12.5;66.3
78461;SHT31;67755;51.986;5.696;2023-04-07T03:47:50;12.5;66.2
78461;SHT31;67755;51.986;5.696;2023-04-07T03:50:20;12.5;66.2
78461;SHT31;67755;51.986;5.696;2023-04-07T03:52:50;12.5;66.2
78461;SHT31;67755;51.986;5.696;2023-04-07T03:55:20;12.5;66.4
78461;SHT31;67755;51.986;5.696;2023-04-07T03:57:50;12.5;66.2
78461;SHT31;67755;51.986;5.696;2023-04-07T04:00:20;12.5;66.2
78461;SHT31;67755;51.986;5.696;2023-04-07T04:02:49;12.5;66.2
78461;SHT31;67755;51.986;5.696;2023-04-07T04:05:19;12.5;66.3
78461;SHT31;67755;51.986;5.696;2023-04-07T04:07:49;12.5;66.1
78461;SHT31;67755;51.986;5.696;2023-04-07T04:10:19;12.5;66.2
78461;SHT31;67755;51.986;5.696;2023-04-07T04:12:51;12.5;66.1
78461;SHT31;67755;51.986;5.696;2023-04-07T04:15:21;12.5;66.2
78461;SHT31;67755;51.986;5.696;2023-04-07T04:17:50;12.5;66.2
78461;SHT31;67755;51.986;5.696;2023-04-07T04:20:20;12.5;66.1
78461;SHT31;67755;51.986;5.696;2023-04-07T04:22:50;12.5;66.2
78461;SHT31;67755;51.986;5.696;2023-04-07T04:25:19;12.5;66.3
78461;SHT31;67755;51.986;5.696;2023-04-07T04:27:49;12.5;66.3
78461;SHT31;67755;51.986;5.696;2023-04-07T04:30:20;12.5;66.2
78461;SHT31;67755;51.986;5.696;2023-04-07T04:32:50;12.5;66.2
78461;SHT31;67755;51.986;5.696;2023-04-07T04:35:19;12.5;66.3
78461;SHT31;67755;51.986;5.696;2023-04-07T04:37:49;12.5;66.2
78461;SHT31;67755;51.986;5.696;2023-04-07T04:40:19;12.5;66.2
78461;SHT31;67755;51.986;5.696;2023-04-07T04:42:49;12.5;66.2
78461;SHT31;67755;51.986;5.696;2023-04-07T04:45:20;12.5;66.1
78461;SHT31;67755;51.986;5.696;2023-04-07T04:47:50;12.5;66.1
78461;SHT31;67755;51.986;5.696;2023-04-07T04:50:19;12.5;66.0
78461;SHT31;67755;51.986;5.696;2023-04-07T04:52:49;12.5;66.1
78461;SHT31;67755;51.986;5.696;2023-04-07T04:55:18;12.5;66.1
78461;SHT31;67755;51.986;5.696;2023-04-07T04:57:48;12.5;66.1
78461;SHT31;67755;51.986;5.696;2023-04-07T05:00:18;12.5;66.1
78461;SHT31;67755;51.986;5.696;2023-04-07T05:02:48;12.5;66.1
78461;SHT31;67755;51.986;5.696;2023-04-07T05:05:18;12.5;66.1
78461;SHT31;67755;51.986;5.696;2023-04-07T05:07:47;12.5;66.1
78461;SHT31;67755;51.986;5.696;2023-04-07T05:10:19;12.5;66.0
78461;SHT31;67755;51.986;5.696;2023-04-07T05:12:49;12.5;65.9
78461;SHT31;67755;51.986;5.696;2023-04-07T05:15:18;12.5;65.9
78461;SHT31;67755;51.986;5.696;2023-04-07T05:17:48;12.6;65.9
78461;SHT31;67755;51.986;5.696;2023-04-07T05:20:18;12.6;65.8
78461;SHT31;67755;51.986;5.696;2023-04-07T05:22:47;12.6;65.8
78461;SHT31;67755;51.986;5.696;2023-04-07T05:25:17;12.6;65.9
78461;SHT31;67755;51.986;5.696;2023-04-07T05:27:46;12.6;66.0
78461;SHT31;67755;51.986;5.696;2023-04-07T05:30:17;12.6;65.9
78461;SHT31;67755;51.986;5.696;2023-04-07T05:32:49;12.6;66.0
78461;SHT31;67755;51.986;5.696;2023-04-07T05:35:18;12.6;65.8
78461;SHT31;67755;51.986;5.696;2023-04-07T05:37:48;12.6;65.7
78461;SHT31;67755;51.986;5.696;2023-04-07T05:40:18;12.6;65.8
78461;SHT31;67755;51.986;5.696;2023-04-07T05:42:48;12.6;65.9
78461;SHT31;67755;51.986;5.696;2023-04-07T05:45:20;12.5;66.0
78461;SHT31;67755;51.986;5.696;2023-04-07T05:47:49;12.5;65.8
78461;SHT31;67755;51.986;5.696;2023-04-07T05:50:19;12.5;65.7
78461;SHT31;67755;51.986;5.696;2023-04-07T05:52:48;12.5;65.9
78461;SHT31;67755;51.986;5.696;2023-04-07T05:55:18;12.5;65.8
78461;SHT31;67755;51.986;5.696;2023-04-07T05:57:48;12.5;66.0
78461;SHT31;67755;51.986;5.696;2023-04-07T06:00:18;12.5;66.0
78461;SHT31;67755;51.986;5.696;2023-04-07T06:02:48;12.5;65.9
78461;SHT31;67755;51.986;5.696;2023-04-07T06:05:18;12.5;66.0
78461;SHT31;67755;51.986;5.696;2023-04-07T06:07:47;12.5;66.2
78461;SHT31;67755;51.986;5.696;2023-04-07T06:10:17;12.5;66.2
78461;SHT31;67755;51.986;5.696;2023-04-07T06:12:47;12.5;66.2
78461;SHT31;67755;51.986;5.696;2023-04-07T06:15:17;12.5;66.4
78461;SHT31;67755;51.986;5.696;2023-04-07T06:17:46;12.5;66.6
78461;SHT31;67755;51.986;5.696;2023-04-07T06:20:16;12.5;66.5
78461;SHT31;67755;51.986;5.696;2023-04-07T06:22:47;12.5;66.7
78461;SHT31;67755;51.986;5.696;2023-04-07T06:25:17;12.5;66.9
78461;SHT31;67755;51.986;5.696;2023-04-07T06:27:47;12.5;66.9
78461;SHT31;67755;51.986;5.696;2023-04-07T06:30:19;12.5;67.0
78461;SHT31;67755;51.986;5.696;2023-04-07T06:32:49;12.5;67.1
78461;SHT31;67755;51.986;5.696;2023-04-07T06:35:20;12.5;67.2
78461;SHT31;67755;51.986;5.696;2023-04-07T06:37:53;12.5;67.5
78461;SHT31;67755;51.986;5.696;2023-04-07T06:40:23;12.5;67.6
78461;SHT31;67755;51.986;5.696;2023-04-07T06:42:52;12.6;67.7
78461;SHT31;67755;51.986;5.696;2023-04-07T06:45:22;12.6;67.8
78461;SHT31;67755;51.986;5.696;2023-04-07T06:47:52;12.6;67.6
78461;SHT31;67755;51.986;5.696;2023-04-07T06:50:22;12.6;67.4
78461;SHT31;67755;51.986;5.696;2023-04-07T06:52:52;12.6;67.1
78461;SHT31;67755;51.986;5.696;2023-04-07T06:55:22;12.6;66.8
78461;SHT31;67755;51.986;5.696;2023-04-07T06:57:53;12.6;66.9
78461;SHT31;67755;51.986;5.696;2023-04-07T07:00:22;12.6;66.5
78461;SHT31;67755;51.986;5.696;2023-04-07T07:02:53;12.6;66.6
78461;SHT31;67755;51.986;5.696;2023-04-07T07:05:23;12.6;66.5
78461;SHT31;67755;51.986;5.696;2023-04-07T07:07:53;12.6;66.5
78461;SHT31;67755;51.986;5.696;2023-04-07T07:10:25;12.6;66.6
78461;SHT31;67755;51.986;5.696;2023-04-07T07:12:54;12.6;67.0
78461;SHT31;67755;51.986;5.696;2023-04-07T07:15:24;12.6;66.8
78461;SHT31;67755;51.986;5.696;2023-04-07T07:17:53;12.7;66.8
78461;SHT31;67755;51.986;5.696;2023-04-07T07:20:23;12.7;66.8
78461;SHT31;67755;51.986;5.696;2023-04-07T07:22:52;12.7;67.1
78461;SHT31;67755;51.986;5.696;2023-04-07T07:25:25;12.7;67.5
78461;SHT31;67755;51.986;5.696;2023-04-07T07:27:54;12.7;67.5
78461;SHT31;67755;51.986;5.696;2023-04-07T07:30:24;12.7;67.2
78461;SHT31;67755;51.986;5.696;2023-04-07T07:32:54;12.7;66.8
78461;SHT31;67755;51.986;5.696;2023-04-07T07:35:24;12.7;67.2
78461;SHT31;67755;51.986;5.696;2023-04-07T07:37:54;12.8;66.9
78461;SHT31;67755;51.986;5.696;2023-04-07T07:40:23;12.8;67.3
78461;SHT31;67755;51.986;5.696;2023-04-07T07:42:53;12.8;67.3
78461;SHT31;67755;51.986;5.696;2023-04-07T07:45:27;12.8;67.5
78461;SHT31;67755;51.986;5.696;2023-04-07T07:47:57;12.8;66.7
78461;SHT31;67755;51.986;5.696;2023-04-07T07:50:27;12.8;67.3
78461;SHT31;67755;51.986;5.696;2023-04-07T07:52:56;12.9;66.9
78461;SHT31;67755;51.986;5.696;2023-04-07T07:55:26;12.9;66.7
78461;SHT31;67755;51.986;5.696;2023-04-07T07:57:56;12.9;67.3
78461;SHT31;67755;51.986;5.696;2023-04-07T08:00:25;12.9;67.2
78461;SHT31;67755;51.986;5.696;2023-04-07T08:02:55;12.9;66.5
78461;SHT31;67755;51.986;5.696;2023-04-07T08:05:25;12.9;67.0
78461;SHT31;67755;51.986;5.696;2023-04-07T08:07:54;13.0;66.9
78461;SHT31;67755;51.986;5.696;2023-04-07T08:10:26;13.0;65.9
78461;SHT31;67755;51.986;5.696;2023-04-07T08:12:56;13.0;66.3
78461;SHT31;67755;51.986;5.696;2023-04-07T08:15:25;13.1;66.3
78461;SHT31;67755;51.986;5.696;2023-04-07T08:17:57;13.1;66.5
78461;SHT31;67755;51.986;5.696;2023-04-07T08:20:31;13.1;65.2
78461;SHT31;67755;51.986;5.696;2023-04-07T08:23:04;13.1;65.1
78461;SHT31;67755;51.986;5.696;2023-04-07T08:25:34;13.1;64.8
78461;SHT31;67755;51.986;5.696;2023-04-07T08:28:04;13.1;65.1
78461;SHT31;67755;51.986;5.696;2023-04-07T08:30:33;13.1;64.8
78461;SHT31;67755;51.986;5.696;2023-04-07T08:33:04;13.1;65.1
78461;SHT31;67755;51.986;5.696;2023-04-07T08:35:34;13.1;65.6
78461;SHT31;67755;51.986;5.696;2023-04-07T08:38:04;13.1;65.2
78461;SHT31;67755;51.986;5.696;2023-04-07T08:40:35;13.1;65.2
78461;SHT31;67755;51.986;5.696;2023-04-07T08:43:08;13.1;65.2
78461;SHT31;67755;51.986;5.696;2023-04-07T08:45:40;13.1;65.3
78461;SHT31;67755;51.986;5.696;2023-04-07T08:48:16;13.1;65.0
78461;SHT31;67755;51.986;5.696;2023-04-07T08:50:48;13.1;64.9
78461;SHT31;67755;51.986;5.696;2023-04-07T08:53:24;13.1;65.9
78461;SHT31;67755;51.986;5.696;2023-04-07T08:56:00;13.2;65.5
78461;SHT31;67755;51.986;5.696;2023-04-07T08:58:30;13.2;65.4
78461;SHT31;67755;51.986;5.696;2023-04-07T09:01:00;13.2;65.4
78461;SHT31;67755;51.986;5.696;2023-04-07T09:03:31;13.2;65.2
78461;SHT31;67755;51.986;5.696;2023-04-07T09:06:02;13.2;65.7
78461;SHT31;67755;51.986;5.696;2023-04-07T09:08:34;13.2;65.3
78461;SHT31;67755;51.986;5.696;2023-04-07T09:11:03;13.2;65.0
78461;SHT31;67755;51.986;5.696;2023-04-07T09:13:33;13.3;65.3
78461;SHT31;67755;51.986;5.696;2023-04-07T09:16:03;13.3;65.2
78461;SHT31;67755;51.986;5.696;2023-04-07T09:18:33;13.3;65.0
78461;SHT31;67755;51.986;5.696;2023-04-07T09:21:04;13.3;64.4
78461;SHT31;67755;51.986;5.696;2023-04-07T09:23:36;13.3;64.3
78461;SHT31;67755;51.986;5.696;2023-04-07T09:26:20;13.3;64.7
78461;SHT31;67755;51.986;5.696;2023-04-07T09:28:54;13.4;65.0
78461;SHT31;67755;51.986;5.696;2023-04-07T09:31:44;13.4;64.1
78461;SHT31;67755;51.986;5.696;2023-04-07T09:34:37;13.4;63.7
78461;SHT31;67755;51.986;5.696;2023-04-07T09:37:07;13.4;63.2
78461;SHT31;67755;51.986;5.696;2023-04-07T09:39:51;13.4;63.5
78461;SHT31;67755;51.986;5.696;2023-04-07T09:42:23;13.4;62.5
78461;SHT31;67755;51.986;5.696;2023-04-07T09:44:53;13.5;62.6
78461;SHT31;67755;51.986;5.696;2023-04-07T09:47:30;13.5;63.9
78461;SHT31;67755;51.986;5.696;2023-04-07T09:50:00;13.5;61.9
78461;SHT31;67755;51.986;5.696;2023-04-07T09:52:50;13.5;62.6
78461;SHT31;67755;51.986;5.696;2023-04-07T09:55:23;13.5;63.8
78461;SHT31;67755;51.986;5.696;2023-04-07T09:57:53;13.5;62.6
78461;SHT31;67755;51.986;5.696;2023-04-07T10:00:24;13.5;62.0
78461;SHT31;67755;51.986;5.696;2023-04-07T10:02:55;13.5;62.3
78461;SHT31;67755;51.986;5.696;2023-04-07T10:05:28;13.6;62.5
78461;SHT31;67755;51.986;5.696;2023-04-07T10:07:58;13.6;62.2
78461;SHT31;67755;51.986;5.696;2023-04-07T10:10:30;13.6;62.4
78461;SHT31;67755;51.986;5.696;2023-04-07T10:13:02;13.6;62.3
78461;SHT31;67755;51.986;5.696;2023-04-07T10:15:32;13.6;63.5
78461;SHT31;67755;51.986;5.696;2023-04-07T10:18:05;13.7;62.7
78461;SHT31;67755;51.986;5.696;2023-04-07T10:20:38;13.7;61.4
78461;SHT31;67755;51.986;5.696;2023-04-07T10:23:17;13.7;60.7
78461;SHT31;67755;51.986;5.696;2023-04-07T10:25:50;13.7;61.2
78461;SHT31;67755;51.986;5.696;2023-04-07T10:28:24;13.7;61.1
78461;SHT31;67755;51.986;5.696;2023-04-07T10:30:57;13.7;60.3
78461;SHT31;67755;51.986;5.696;2023-04-07T10:33:47;13.7;60.3
78461;SHT31;67755;51.986;5.696;2023-04-07T10:36:18;13.7;60.3
78461;SHT31;67755;51.986;5.696;2023-04-07T10:39:52;13.7;60.8
78461;SHT31;67755;51.986;5.696;2023-04-07T10:42:47;13.7;60.0
78461;SHT31;67755;51.986;5.696;2023-04-07T10:48:12;13.7;61.0
78461;SHT31;67755;51.986;5.696;2023-04-07T10:50:43;13.7;61.1
78461;SHT31;67755;51.986;5.696;2023-04-07T10:53:14;13.7;60.5
78461;SHT31;67755;51.986;5.696;2023-04-07T10:55:45;13.7;60.5
78461;SHT31;67755;51.986;5.696;2023-04-07T10:58:20;13.7;60.9
78461;SHT31;67755;51.986;5.696;2023-04-07T11:01:17;13.7;60.7
78461;SHT31;67755;51.986;5.696;2023-04-07T11:03:55;13.7;61.3
78461;SHT31;67755;51.986;5.696;2023-04-07T11:06:25;13.7;61.3
78461;SHT31;67755;51.986;5.696;2023-04-07T11:08:55;13.7;60.6
78461;SHT31;67755;51.986;5.696;2023-04-07T11:11:40;13.7;60.5
78461;SHT31;67755;51.986;5.696;2023-04-07T11:14:12;13.8;60.6
78461;SHT31;67755;51.986;5.696;2023-04-07T11:16:46;13.8;60.6
78461;SHT31;67755;51.986;5.696;2023-04-07T11:19:16;13.8;60.5
78461;SHT31;67755;51.986;5.696;2023-04-07T11:21:46;13.8;61.0
78461;SHT31;67755;51.986;5.696;2023-04-07T11:24:32;13.8;61.2
78461;SHT31;67755;51.986;5.696;2023-04-07T11:27:04;13.8;61.5
78461;SHT31;67755;51.986;5.696;2023-04-07T11:29:34;13.8;61.6
78461;SHT31;67755;51.986;5.696;2023-04-07T11:32:04;13.8;61.2
78461;SHT31;67755;51.986;5.696;2023-04-07T11:34:35;13.8;61.0
78461;SHT31;67755;51.986;5.696;2023-04-07T11:37:20;13.8;60.8
78461;SHT31;67755;51.986;5.696;2023-04-07T11:39:54;13.8;60.8
78461;SHT31;67755;51.986;5.696;2023-04-07T11:42:35;13.8;61.5
78461;SHT31;67755;51.986;5.696;2023-04-07T11:45:19;13.8;61.1
78461;SHT31;67755;51.986;5.696;2023-04-07T11:47:52;13.8;61.3
78461;SHT31;67755;51.986;5.696;2023-04-07T11:50:39;13.8;60.4
78461;SHT31;67755;51.986;5.696;2023-04-07T11:53:10;13.8;60.0
78461;SHT31;67755;51.986;5.696;2023-04-07T11:55:39;13.9;59.0
78461;SHT31;67755;51.986;5.696;2023-04-07T11:58:11;13.9;59.8
78461;SHT31;67755;51.986;5.696;2023-04-07T12:00:54;13.9;59.4
78461;SHT31;67755;51.986;5.696;2023-04-07T12:03:24;13.9;60.0
78461;SHT31;67755;51.986;5.696;2023-04-07T12:05:54;13.9;58.7
78461;SHT31;67755;51.986;5.696;2023-04-07T12:08:42;13.9;60.1
78461;SHT31;67755;51.986;5.696;2023-04-07T12:11:14;13.9;59.4
78461;SHT31;67755;51.986;5.696;2023-04-07T12:13:44;13.9;60.1
78461;SHT31;67755;51.986;5.696;2023-04-07T12:16:14;13.9;58.5
78461;SHT31;67755;51.986;5.696;2023-04-07T12:18:46;13.9;60.4
78461;SHT31;67755;51.986;5.696;2023-04-07T12:21:16;13.9;62.0
78461;SHT31;67755;51.986;5.696;2023-04-07T12:23:46;13.9;61.0
78461;SHT31;67755;51.986;5.696;2023-04-07T12:26:16;13.9;61.0
78461;SHT31;67755;51.986;5.696;2023-04-07T12:28:45;13.9;61.7
78461;SHT31;67755;51.986;5.696;2023-04-07T12:31:18;13.9;60.9
78461;SHT31;67755;51.986;5.696;2023-04-07T12:33:48;13.9;61.1
78461;SHT31;67755;51.986;5.696;2023-04-07T12:36:17;13.9;61.5
78461;SHT31;67755;51.986;5.696;2023-04-07T12:38:47;13.9;59.7
78461;SHT31;67755;51.986;5.696;2023-04-07T12:41:17;13.9;59.3
78461;SHT31;67755;51.986;5.696;2023-04-07T12:43:46;13.9;60.0
78461;SHT31;67755;51.986;5.696;2023-04-07T12:46:16;13.9;59.9
78461;SHT31;67755;51.986;5.696;2023-04-07T12:48:46;13.9;59.0
78461;SHT31;67755;51.986;5.696;2023-04-07T12:51:16;13.9;59.4
78461;SHT31;67755;51.986;5.696;2023-04-07T12:53:46;13.9;60.3
78461;SHT31;67755;51.986;5.696;2023-04-07T12:56:16;13.9;59.8
78461;SHT31;67755;51.986;5.696;2023-04-07T12:58:45;13.9;59.9
78461;SHT31;67755;51.986;5.696;2023-04-07T13:01:15;13.9;59.6
78461;SHT31;67755;51.986;5.696;2023-04-07T13:03:44;13.9;58.8
78461;SHT31;67755;51.986;5.696;2023-04-07T13:06:14;14.0;61.0
78461;SHT31;67755;51.986;5.696;2023-04-07T13:08:44;14.0;59.6
78461;SHT31;67755;51.986;5.696;2023-04-07T13:11:16;14.0;60.1
78461;SHT31;67755;51.986;5.696;2023-04-07T13:13:46;14.0;59.5
78461;SHT31;67755;51.986;5.696;2023-04-07T13:16:15;14.0;60.4
78461;SHT31;67755;51.986;5.696;2023-04-07T13:18:45;14.0;59.8
78461;SHT31;67755;51.986;5.696;2023-04-07T13:21:15;14.0;61.9
78461;SHT31;67755;51.986;5.696;2023-04-07T13:23:46;14.0;60.6
78461;SHT31;67755;51.986;5.696;2023-04-07T13:26:17;14.1;59.3
78461;SHT31;67755;51.986;5.696;2023-04-07T13:28:49;14.1;59.2
78461;SHT31;67755;51.986;5.696;2023-04-07T13:31:18;14.1;60.1
78461;SHT31;67755;51.986;5.696;2023-04-07T13:33:50;14.1;61.5
78461;SHT31;67755;51.986;5.696;2023-04-07T13:36:19;14.1;61.4
78461;SHT31;67755;51.986;5.696;2023-04-07T13:38:49;14.1;62.8
78461;SHT31;67755;51.986;5.696;2023-04-07T13:41:18;14.2;61.8
78461;SHT31;67755;51.986;5.696;2023-04-07T13:43:48;14.2;58.6
78461;SHT31;67755;51.986;5.696;2023-04-07T13:46:19;14.2;58.7
78461;SHT31;67755;51.986;5.696;2023-04-07T13:48:51;14.2;61.1
78461;SHT31;67755;51.986;5.696;2023-04-07T13:51:20;14.2;60.4
78461;SHT31;67755;51.986;5.696;2023-04-07T13:53:50;14.2;58.8
78461;SHT31;67755;51.986;5.696;2023-04-07T13:56:22;14.2;58.7
78461;SHT31;67755;51.986;5.696;2023-04-07T13:58:51;14.2;58.1
78461;SHT31;67755;51.986;5.696;2023-04-07T14:01:21;14.3;57.9
78461;SHT31;67755;51.986;5.696;2023-04-07T14:03:52;14.3;57.7
78461;SHT31;67755;51.986;5.696;2023-04-07T14:06:22;14.3;58.7
78461;SHT31;67755;51.986;5.696;2023-04-07T14:08:53;14.3;58.5
78461;SHT31;67755;51.986;5.696;2023-04-07T14:11:23;14.3;59.2
78461;SHT31;67755;51.986;5.696;2023-04-07T14:13:54;14.3;59.2
78461;SHT31;67755;51.986;5.696;2023-04-07T14:16:24;14.3;59.4
78461;SHT31;67755;51.986;5.696;2023-04-07T14:18:53;14.3;59.7
78461;SHT31;67755;51.986;5.696;2023-04-07T14:21:26;14.3;57.6
78461;SHT31;67755;51.986;5.696;2023-04-07T14:23:56;14.4;58.0
78461;SHT31;67755;51.986;5.696;2023-04-07T14:26:25;14.4;58.1
78461;SHT31;67755;51.986;5.696;2023-04-07T14:28:57;14.4;58.6
78461;SHT31;67755;51.986;5.696;2023-04-07T14:31:27;14.4;57.7
78461;SHT31;67755;51.986;5.696;2023-04-07T14:33:56;14.4;59.4
78461;SHT31;67755;51.986;5.696;2023-04-07T14:36:26;14.4;58.5
78461;SHT31;67755;51.986;5.696;2023-04-07T14:38:56;14.4;58.6
78461;SHT31;67755;51.986;5.696;2023-04-07T14:41:26;14.4;60.4
78461;SHT31;67755;51.986;5.696;2023-04-07T14:43:56;14.4;59.5
78461;SHT31;67755;51.986;5.696;2023-04-07T14:46:26;14.4;58.1
78461;SHT31;67755;51.986;5.696;2023-04-07T14:48:57;14.4;58.2
78461;SHT31;67755;51.986;5.696;2023-04-07T14:51:27;14.4;59.2
78461;SHT31;67755;51.986;5.696;2023-04-07T14:53:56;14.5;58.0
78461;SHT31;67755;51.986;5.696;2023-04-07T14:56:26;14.5;57.9
78461;SHT31;67755;51.986;5.696;2023-04-07T14:58:55;14.5;57.6
78461;SHT31;67755;51.986;5.696;2023-04-07T15:01:25;14.5;57.2
78461;SHT31;67755;51.986;5.696;2023-04-07T15:03:56;14.5;58.2
78461;SHT31;67755;51.986;5.696;2023-04-07T15:06:27;14.5;58.1
78461;SHT31;67755;51.986;5.696;2023-04-07T15:08:58;14.5;57.5
78461;SHT31;67755;51.986;5.696;2023-04-07T15:11:27;14.5;58.1
78461;SHT31;67755;51.986;5.696;2023-04-07T15:13:58;14.4;58.8
78461;SHT31;67755;51.986;5.696;2023-04-07T15:16:28;14.4;58.2
78461;SHT31;67755;51.986;5.696;2023-04-07T15:18:58;14.4;58.0
78461;SHT31;67755;51.986;5.696;2023-04-07T15:21:28;14.4;57.6
78461;SHT31;67755;51.986;5.696;2023-04-07T15:23:58;14.4;57.4
78461;SHT31;67755;51.986;5.696;2023-04-07T15:26:27;14.4;57.6
78461;SHT31;67755;51.986;5.696;2023-04-07T15:28:57;14.4;57.1
78461;SHT31;67755;51.986;5.696;2023-04-07T15:31:26;14.4;57.7
78461;SHT31;67755;51.986;5.696;2023-04-07T15:33:58;14.4;57.2
78461;SHT31;67755;51.986;5.696;2023-04-07T15:36:28;14.4;57.1
78461;SHT31;67755;51.986;5.696;2023-04-07T15:39:01;14.4;59.2
78461;SHT31;67755;51.986;5.696;2023-04-07T15:41:33;14.3;58.4
78461;SHT31;67755;51.986;5.696;2023-04-07T15:44:03;14.3;58.5
78461;SHT31;67755;51.986;5.696;2023-04-07T15:46:33;14.3;59.2
78461;SHT31;67755;51.986;5.696;2023-04-07T15:49:02;14.3;60.0
78461;SHT31;67755;51.986;5.696;2023-04-07T15:51:32;14.3;60.1
78461;SHT31;67755;51.986;5.696;2023-04-07T15:54:02;14.3;58.7
78461;SHT31;67755;51.986;5.696;2023-04-07T15:56:34;14.3;60.9
78461;SHT31;67755;51.986;5.696;2023-04-07T15:59:03;14.3;60.7
78461;SHT31;67755;51.986;5.696;2023-04-07T16:01:33;14.3;61.2
78461;SHT31;67755;51.986;5.696;2023-04-07T16:04:04;14.3;60.7
78461;SHT31;67755;51.986;5.696;2023-04-07T16:06:34;14.3;59.7
78461;SHT31;67755;51.986;5.696;2023-04-07T16:09:04;14.3;58.6
78461;SHT31;67755;51.986;5.696;2023-04-07T16:11:33;14.3;58.9
78461;SHT31;67755;51.986;5.696;2023-04-07T16:14:03;14.3;58.5
78461;SHT31;67755;51.986;5.696;2023-04-07T16:16:32;14.3;58.5
78461;SHT31;67755;51.986;5.696;2023-04-07T16:19:03;14.3;58.5
78461;SHT31;67755;51.986;5.696;2023-04-07T16:21:32;14.3;58.7
78461;SHT31;67755;51.986;5.696;2023-04-07T16:24:03;14.3;58.3
78461;SHT31;67755;51.986;5.696;2023-04-07T16:26:33;14.3;58.1
78461;SHT31;67755;51.986;5.696;2023-04-07T16:29:03;14.3;59.6
78461;SHT31;67755;51.986;5.696;2023-04-07T16:31:34;14.3;60.0
78461;SHT31;67755;51.986;5.696;2023-04-07T16:34:04;14.3;59.0